Time,TemperatureF,DewpointF,PressureIn,WindDirection,WindDirectionDegrees,WindSpeedMPH,WindSpeedGustMPH,Humidity,HourlyPrecipIn,Conditions,Clouds,dailyrainin,SoftwareType,DateUTC
2013-09-21 00:14:00,69.0,60.0,30.06,ESE,123,1.0,4.0,73,0.00,,,0.00,weatherlink.com 1.10,2013-09-21 06:14:00,
2013-09-21 00:29:00,68.8,60.0,30.06,ESE,122,3.0,4.0,74,0.00,,,0.00,weatherlink.com 1.10,2013-09-21 06:29:00,
2013-09-21 00:44:00,68.6,60.0,30.06,SE,131,2.0,5.0,74,0.00,,,0.00,weatherlink.com 1.10,2013-09-21 06:44:00,
2013-09-21 00:59:00,68.3,60.0,30.06,SE,138,2.0,6.0,75,0.00,,,0.00,weatherlink.com 1.10,2013-09-21 06:59:00,
2013-09-21 01:14:00,68.0,60.0,30.06,SE,131,2.0,7.0,76,0.00,,,0.00,weatherlink.com 1.10,2013-09-21 07:14:00,
2013-09-21 01:29:00,67.5,60.0,30.06,South,178,1.0,3.0,77,0.00,,,0.00,weatherlink.com 1.10,2013-09-21 07:29:00,
2013-09-21 01:44:00,67.3,60.0,30.06,SE,139,1.0,3.0,77,0.00,,,0.00,weatherlink.com 1.10,2013-09-21 07:44:00,
2013-09-21 01:59:00,66.8,60.0,30.06,SSE,155,1.0,3.0,78,0.00,,,0.00,weatherlink.com 1.10,2013-09-21 07:59:00,
2013-09-21 02:14:00,66.5,60.0,30.05,SSW,193,2.0,3.0,79,0.00,,,0.00,weatherlink.com 1.10,2013-09-21 08:14:00,
2013-09-21 02:29:00,66.4,60.0,30.05,South,172,3.0,5.0,79,0.00,,,0.00,weatherlink.com 1.10,2013-09-21 08:29:00,
2013-09-21 02:44:00,66.2,60.0,30.05,SSE,168,0.0,4.0,79,0.00,,,0.00,weatherlink.com 1.10,2013-09-21 08:44:00,
2013-09-21 02:59:00,65.8,60.0,30.05,SE,126,2.0,3.0,80,0.00,,,0.00,weatherlink.com 1.10,2013-09-21 08:59:00,
2013-09-21 03:14:00,65.5,59.0,30.05,South,176,1.0,4.0,80,0.00,,,0.00,weatherlink.com 1.10,2013-09-21 09:14:00,
2013-09-21 03:29:00,65.3,59.0,30.05,South,177,3.0,4.0,81,0.00,,,0.00,weatherlink.com 1.10,2013-09-21 09:29:00,
2013-09-21 03:44:00,65.0,59.0,30.06,SE,145,1.0,4.0,81,0.00,,,0.00,weatherlink.com 1.10,2013-09-21 09:44:00,
2013-09-21 03:59:00,64.8,59.0,30.06,SSE,164,3.0,4.0,82,0.00,,,0.00,weatherlink.com 1.10,2013-09-21 09:59:00,
2013-09-21 04:14:00,64.7,59.0,30.06,SSE,150,0.0,5.0,82,0.00,,,0.00,weatherlink.com 1.10,2013-09-21 10:14:00,
2013-09-21 04:29:00,64.5,59.0,30.06,SE,128,1.0,4.0,82,0.00,,,0.00,weatherlink.com 1.10,2013-09-21 10:29:00,
2013-09-21 04:44:00,64.5,59.0,30.06,South,188,3.0,5.0,82,0.00,,,0.00,weatherlink.com 1.10,2013-09-21 10:44:00,
2013-09-21 04:59:00,64.0,58.0,30.06,SE,145,1.0,3.0,82,0.00,,,0.00,weatherlink.com 1.10,2013-09-21 10:59:00,
2013-09-21 05:14:00,63.9,58.0,30.07,SSW,193,2.0,3.0,82,0.00,,,0.00,weatherlink.com 1.10,2013-09-21 11:14:00,
2013-09-21 05:29:00,63.7,58.0,30.07,South,184,1.0,4.0,82,0.00,,,0.00,weatherlink.com 1.10,2013-09-21 11:29:00,
2013-09-21 05:44:00,63.7,58.0,30.08,SSE,162,1.0,3.0,82,0.00,,,0.00,weatherlink.com 1.10,2013-09-21 11:44:00,
2013-09-21 05:59:00,63.5,58.0,30.08,SSE,162,1.0,3.0,82,0.00,,,0.00,weatherlink.com 1.10,2013-09-21 11:59:00,
2013-09-21 06:14:00,63.5,58.0,30.08,SSE,148,1.0,3.0,81,0.00,,,0.00,weatherlink.com 1.10,2013-09-21 12:14:00,
2013-09-21 06:29:00,63.5,58.0,30.09,South,172,4.0,6.0,81,0.00,,,0.00,weatherlink.com 1.10,2013-09-21 12:29:00,
2013-09-21 06:44:00,63.5,57.0,30.09,SSE,160,0.0,5.0,80,0.00,,,0.00,weatherlink.com 1.10,2013-09-21 12:44:00,
2013-09-21 06:59:00,63.3,57.0,30.09,SSE,166,2.0,5.0,80,0.00,,,0.00,weatherlink.com 1.10,2013-09-21 12:59:00,
2013-09-21 07:15:00,64.0,57.0,30.09,South,175,4.0,4.0,79,0.00,,,0.00,weatherlink.com 1.10,2013-09-21 13:15:00,
2013-09-21 07:30:00,65.5,58.0,30.10,South,179,2.0,4.0,76,0.00,,,0.00,weatherlink.com 1.10,2013-09-21 13:30:00,
2013-09-21 07:45:00,66.6,58.0,30.10,SSW,201,2.0,6.0,74,0.00,,,0.00,weatherlink.com 1.10,2013-09-21 13:45:00,
2013-09-21 08:00:00,67.3,58.0,30.11,SSE,148,2.0,6.0,72,0.00,,,0.00,weatherlink.com 1.10,2013-09-21 14:00:00,
2013-09-21 08:15:00,67.2,57.0,30.11,ESE,115,7.0,7.0,71,0.00,,,0.00,weatherlink.com 1.10,2013-09-21 14:15:00,
2013-09-21 08:30:00,67.4,57.0,30.11,ESE,120,3.0,8.0,70,0.00,,,0.00,weatherlink.com 1.10,2013-09-21 14:30:00,
2013-09-21 08:45:00,68.0,57.0,30.11,WSW,249,6.0,10.0,67,0.00,,,0.00,weatherlink.com 1.10,2013-09-21 14:45:00,
2013-09-21 09:00:00,68.3,57.0,30.12,South,183,5.0,9.0,67,0.00,,,0.00,weatherlink.com 1.10,2013-09-21 15:00:00,
2013-09-21 09:15:00,68.8,57.0,30.12,SSE,153,6.0,10.0,66,0.00,,,0.00,weatherlink.com 1.10,2013-09-21 15:15:00,
2013-09-21 09:30:00,69.6,57.0,30.11,SSW,201,2.0,9.0,65,0.00,,,0.00,weatherlink.com 1.10,2013-09-21 15:30:00,
2013-09-21 09:45:00,70.4,57.0,30.11,SSW,212,7.0,8.0,63,0.00,,,0.00,weatherlink.com 1.10,2013-09-21 15:45:00,
2013-09-21 10:00:00,71.1,57.0,30.12,SE,125,3.0,10.0,61,0.00,,,0.00,weatherlink.com 1.10,2013-09-21 16:00:00,
2013-09-21 10:15:00,71.3,57.0,30.12,ESE,112,3.0,12.0,61,0.00,,,0.00,weatherlink.com 1.10,2013-09-21 16:15:00,
2013-09-21 10:30:00,71.4,57.0,30.11,SW,225,3.0,12.0,61,0.00,,,0.00,weatherlink.com 1.10,2013-09-21 16:30:00,
2013-09-21 10:45:00,71.0,57.0,30.12,SE,145,5.0,9.0,62,0.00,,,0.00,weatherlink.com 1.10,2013-09-21 16:45:00,
2013-09-21 11:00:00,70.9,57.0,30.11,SE,125,4.0,10.0,61,0.00,,,0.00,weatherlink.com 1.10,2013-09-21 17:00:00,
2013-09-21 11:15:00,72.2,56.0,30.11,SE,138,3.0,8.0,58,0.00,,,0.00,weatherlink.com 1.10,2013-09-21 17:15:00,
2013-09-21 11:30:00,72.4,57.0,30.11,SE,133,5.0,9.0,59,0.00,,,0.00,weatherlink.com 1.10,2013-09-21 17:30:00,
2013-09-21 11:45:00,73.1,57.0,30.10,ESE,117,8.0,8.0,58,0.00,,,0.00,weatherlink.com 1.10,2013-09-21 17:45:00,
2013-09-21 12:00:00,74.3,57.0,30.09,NE,56,7.0,7.0,56,0.00,,,0.00,weatherlink.com 1.10,2013-09-21 18:00:00,
2013-09-21 12:30:00,75.7,57.0,30.08,East,98,3.0,9.0,52,0.00,,,0.00,weatherlink.com 1.10,2013-09-21 18:30:00,
2013-09-21 12:45:00,75.5,57.0,30.07,ENE,58,3.0,12.0,52,0.00,,,0.00,weatherlink.com 1.10,2013-09-21 18:45:00,
2013-09-21 13:00:00,75.9,57.0,30.06,SSW,210,2.0,9.0,53,0.00,,,0.00,weatherlink.com 1.10,2013-09-21 19:00:00,
2013-09-21 13:15:00,77.8,57.0,30.05,ENE,58,6.0,8.0,49,0.00,,,0.00,weatherlink.com 1.10,2013-09-21 19:15:00,
2013-09-21 13:30:00,77.5,57.0,30.05,SSE,159,3.0,9.0,49,0.00,,,0.00,weatherlink.com 1.10,2013-09-21 19:30:00,
2013-09-21 13:45:00,77.9,57.0,30.04,ESE,106,6.0,9.0,49,0.00,,,0.00,weatherlink.com 1.10,2013-09-21 19:45:00,
2013-09-21 14:00:00,78.5,56.0,30.03,SE,132,5.0,9.0,46,0.00,,,0.00,weatherlink.com 1.10,2013-09-21 20:00:00,
2013-09-21 14:16:00,79.4,57.0,30.02,SSE,150,3.0,9.0,46,0.00,,,0.00,weatherlink.com 1.10,2013-09-21 20:16:00,
2013-09-21 14:31:00,77.7,56.0,30.01,SE,131,1.0,9.0,48,0.00,,,0.00,weatherlink.com 1.10,2013-09-21 20:31:00,
2013-09-21 14:46:00,78.9,56.0,30.00,ENE,72,6.0,10.0,46,0.00,,,0.00,weatherlink.com 1.10,2013-09-21 20:46:00,
2013-09-21 15:01:00,79.1,56.0,30.00,ENE,66,5.0,9.0,45,0.00,,,0.00,weatherlink.com 1.10,2013-09-21 21:01:00,
2013-09-21 15:16:00,79.9,55.0,29.99,SSE,150,5.0,8.0,43,0.00,,,0.00,weatherlink.com 1.10,2013-09-21 21:16:00,
2013-09-21 15:31:00,79.2,55.0,29.99,NE,39,2.0,9.0,44,0.00,,,0.00,weatherlink.com 1.10,2013-09-21 21:31:00,
2013-09-21 15:46:00,80.1,56.0,29.98,East,101,7.0,9.0,43,0.00,,,0.00,weatherlink.com 1.10,2013-09-21 21:46:00,
2013-09-21 16:01:00,79.9,55.0,29.98,SE,134,4.0,8.0,42,0.00,,,0.00,weatherlink.com 1.10,2013-09-21 22:01:00,
2013-09-21 16:16:00,80.1,55.0,29.97,SE,132,3.0,7.0,42,0.00,,,0.00,weatherlink.com 1.10,2013-09-21 22:16:00,
2013-09-21 16:31:00,80.1,56.0,29.96,East,84,3.0,6.0,44,0.00,,,0.00,weatherlink.com 1.10,2013-09-21 22:31:00,
2013-09-21 16:46:00,79.6,54.0,29.96,NE,50,3.0,7.0,42,0.00,,,0.00,weatherlink.com 1.10,2013-09-21 22:46:00,
2013-09-21 17:01:00,79.7,55.0,29.95,ENE,77,0.0,5.0,42,0.00,,,0.00,weatherlink.com 1.10,2013-09-21 23:01:00,
2013-09-21 17:16:00,80.8,54.0,29.95,East,82,2.0,5.0,40,0.00,,,0.00,weatherlink.com 1.10,2013-09-21 23:16:00,
2013-09-21 17:31:00,81.1,55.0,29.95,WSW,255,0.0,6.0,40,0.00,,,0.00,weatherlink.com 1.10,2013-09-21 23:31:00,
2013-09-21 17:46:00,80.5,53.0,29.95,ESE,120,2.0,6.0,39,0.00,,,0.00,weatherlink.com 1.10,2013-09-21 23:46:00,
2013-09-21 18:01:00,79.5,53.0,29.95,NNW,335,0.0,6.0,40,0.00,,,0.00,weatherlink.com 1.10,2013-09-22 00:01:00,
2013-09-21 18:16:00,79.1,53.0,29.95,ENE,64,3.0,4.0,41,0.00,,,0.00,weatherlink.com 1.10,2013-09-22 00:16:00,
2013-09-21 18:31:00,78.1,53.0,29.95,East,81,3.0,5.0,42,0.00,,,0.00,weatherlink.com 1.10,2013-09-22 00:31:00,
2013-09-21 18:46:00,77.1,53.0,29.95,East,86,3.0,4.0,44,0.00,,,0.00,weatherlink.com 1.10,2013-09-22 00:46:00,
2013-09-21 19:01:00,76.6,53.0,29.95,East,82,1.0,5.0,44,0.00,,,0.00,weatherlink.com 1.10,2013-09-22 01:01:00,
2013-09-21 19:11:00,76.2,53.3,29.94,ESE,116,1.0,0.0,45,0.00,,,0.00,WeatherSnoop2.2.5,2013-09-22 01:11:00,
2013-09-21 19:16:00,76.1,53.2,29.94,East,98,2.0,0.0,45,0.00,,,0.00,WeatherSnoop2.2.5,2013-09-22 01:16:00,
2013-09-21 19:21:00,76.0,53.1,29.95,ESE,106,0.0,0.0,45,0.00,,,0.00,WeatherSnoop2.2.5,2013-09-22 01:21:00,
2013-09-21 19:26:00,75.8,53.5,29.95,East,82,1.0,0.0,46,0.00,,,0.00,WeatherSnoop2.2.5,2013-09-22 01:26:00,
2013-09-21 19:31:00,75.7,52.8,29.95,East,82,2.0,0.0,45,0.00,,,0.00,WeatherSnoop2.2.5,2013-09-22 01:31:00,
2013-09-21 19:36:00,75.6,52.7,29.95,ESE,103,1.0,0.0,45,0.00,,,0.00,WeatherSnoop2.2.5,2013-09-22 01:36:00,
2013-09-21 19:41:00,75.5,53.3,29.95,East,91,1.0,0.0,46,0.00,,,0.00,WeatherSnoop2.2.5,2013-09-22 01:41:00,
2013-09-21 19:46:00,75.3,53.1,29.95,East,79,1.0,0.0,46,0.00,,,0.00,WeatherSnoop2.2.5,2013-09-22 01:46:00,
2013-09-21 19:51:00,75.2,53.0,29.95,East,81,1.0,0.0,46,0.00,,,0.00,WeatherSnoop2.2.5,2013-09-22 01:51:00,
2013-09-21 19:56:00,75.0,53.4,29.95,ESE,103,0.0,0.0,47,0.00,,,0.00,WeatherSnoop2.2.5,2013-09-22 01:56:00,
2013-09-21 20:01:00,74.9,53.3,29.95,East,87,1.0,0.0,47,0.00,,,0.00,WeatherSnoop2.2.5,2013-09-22 02:01:00,
2013-09-21 20:06:00,74.7,53.7,29.95,East,92,0.0,0.0,48,0.00,,,0.00,WeatherSnoop2.2.5,2013-09-22 02:06:00,
2013-09-21 20:11:00,74.5,53.5,29.96,East,89,1.0,0.0,48,0.00,,,0.00,WeatherSnoop2.2.5,2013-09-22 02:11:00,
2013-09-21 20:16:00,74.5,53.5,29.96,East,91,0.0,0.0,48,0.00,,,0.00,WeatherSnoop2.2.5,2013-09-22 02:16:00,
2013-09-21 20:21:00,74.2,53.8,29.95,East,91,0.0,0.0,49,0.00,,,0.00,WeatherSnoop2.2.5,2013-09-22 02:21:00,
2013-09-21 20:26:00,74.0,53.6,29.96,East,89,1.0,0.0,49,0.00,,,0.00,WeatherSnoop2.2.5,2013-09-22 02:26:00,
2013-09-21 20:31:00,74.0,53.6,29.96,ESE,106,1.0,0.0,49,0.00,,,0.00,WeatherSnoop2.2.5,2013-09-22 02:31:00,
2013-09-21 20:36:00,73.9,53.5,29.96,ESE,109,1.0,0.0,49,0.00,,,0.00,WeatherSnoop2.2.5,2013-09-22 02:36:00,
2013-09-21 20:53:00,73.1,54.0,29.96,ESE,102,0.0,1.0,51,0.00,,,0.00,weatherlink.com 1.10,2013-09-22 02:53:00,
2013-09-21 21:08:00,72.0,54.0,29.96,ESE,116,0.0,1.0,54,0.00,,,0.00,weatherlink.com 1.10,2013-09-22 03:08:00,
2013-09-21 21:23:00,71.3,55.0,29.96,ESE,116,0.0,1.0,56,0.00,,,0.00,weatherlink.com 1.10,2013-09-22 03:23:00,
2013-09-21 21:38:00,70.6,54.0,29.96,ESE,116,0.0,1.0,57,0.00,,,0.00,weatherlink.com 1.10,2013-09-22 03:38:00,
2013-09-21 21:53:00,70.4,54.0,29.97,SSE,155,0.0,0.0,56,0.00,,,0.00,weatherlink.com 1.10,2013-09-22 03:53:00,
2013-09-21 22:08:00,70.6,54.0,29.97,ESE,111,1.0,5.0,55,0.00,,,0.00,weatherlink.com 1.10,2013-09-22 04:08:00,
2013-09-21 22:23:00,70.3,54.0,29.97,ESE,111,1.0,1.0,56,0.00,,,0.00,weatherlink.com 1.10,2013-09-22 04:23:00,
2013-09-21 22:38:00,70.4,54.0,29.97,ESE,114,0.0,1.0,56,0.00,,,0.00,weatherlink.com 1.10,2013-09-22 04:38:00,
2013-09-21 22:53:00,69.6,53.0,29.97,South,186,2.0,3.0,56,0.00,,,0.00,weatherlink.com 1.10,2013-09-22 04:53:00,
2013-09-21 23:08:00,69.2,54.0,29.97,South,184,2.0,3.0,58,0.00,,,0.00,weatherlink.com 1.10,2013-09-22 05:08:00,
2013-09-21 23:23:00,69.0,54.0,29.97,South,172,1.0,3.0,59,0.00,,,0.00,weatherlink.com 1.10,2013-09-22 05:23:00,
2013-09-21 23:38:00,69.4,54.0,29.97,SSW,193,2.0,4.0,59,0.00,,,0.00,weatherlink.com 1.10,2013-09-22 05:38:00,
2013-09-21 23:53:00,69.2,54.0,29.96,SW,216,1.0,4.0,59,0.00,,,0.00,weatherlink.com 1.10,2013-09-22 05:53:00,